Saint Ann, Missouri
Current Conditions -  °F | °C
As of 2:51 PM on Thursday 23 Oct 2014 (Local Time) from KSTL Reporting Station
Broken Clouds Broken Clouds  
Wind Chill: 64°   Ceiling: 25000
Heat Index: 64°   Visibility: 10mi
Dew Point: 45°   Wind: 6mph
Humidity: 50%   Direction: 150°SSE
Pressure: 30.12"   Gusts: NA
Location:  38.73°N, 90.38°W
Report Text: KSTL 231951Z 15005KT 10SM FEW055 SCT140 BKN250 18/07 A3012 RMK AO2 SLP199 T01780072
Loading
Personal Weather Stations






























Interactive Weather Map
Tropical Storm Tracking
New forecast layout! Learn more

10-Day Weather Forecast

Advertisements
Track Severe Weather on mobile